createdAt,value
2023-02-15T00:04:49.804Z,60.89
2023-02-15T00:09:53.213Z,60.58
2023-02-15T00:14:56.540Z,60.99
2023-02-15T00:19:59.869Z,60.71
2023-02-15T00:25:03.228Z,60.85
2023-02-15T00:30:07.478Z,60.98
2023-02-15T00:35:10.991Z,60.79
2023-02-15T00:40:15.146Z,60.68
2023-02-15T00:45:19.486Z,60.80
2023-02-15T00:50:23.947Z,60.39
2023-02-15T00:55:27.966Z,60.70
2023-02-15T01:00:33.709Z,60.93
2023-02-15T01:05:37.424Z,60.99
2023-02-15T01:10:40.942Z,61.06
2023-02-15T01:15:46.819Z,61.31
2023-02-15T01:20:51.270Z,61.51
2023-02-15T01:25:54.677Z,60.92
2023-02-15T01:30:58.274Z,60.92
2023-02-15T01:36:02.244Z,61.09
2023-02-15T01:41:21.445Z,61.22
2023-02-15T01:46:45.590Z,61.55
2023-02-15T01:51:52.457Z,61.62
2023-02-15T01:57:04.022Z,61.69
2023-02-15T02:02:11.069Z,61.58
2023-02-15T02:07:17.498Z,61.55
2023-02-15T02:12:23.038Z,61.40
2023-02-15T02:17:40.887Z,61.57
2023-02-15T02:23:22.169Z,61.53
2023-02-15T02:28:59.322Z,61.78
2023-02-15T02:34:10.933Z,62.09
2023-02-15T02:39:14.980Z,62.14
2023-02-15T02:44:24.267Z,61.91
2023-02-15T02:49:37.977Z,62.13
2023-02-15T02:54:41.379Z,61.82
2023-02-15T02:59:48.014Z,62.18
2023-02-15T03:04:59.600Z,62.18
2023-02-15T03:10:06.199Z,62.53
2023-02-15T03:15:20.532Z,62.59
2023-02-15T03:20:29.092Z,62.70
2023-02-15T03:25:41.036Z,62.88
2023-02-15T03:30:49.159Z,62.86
2023-02-15T03:36:01.044Z,62.71
2023-02-15T03:41:12.046Z,62.58
2023-02-15T03:46:29.285Z,62.79
2023-02-15T03:51:39.234Z,62.72
2023-02-15T03:57:03.664Z,62.96
2023-02-15T04:02:22.945Z,62.78
2023-02-15T04:07:26.224Z,62.82
2023-02-15T04:12:29.432Z,62.78
2023-02-15T04:17:32.795Z,62.59
2023-02-15T04:22:55.201Z,62.64
2023-02-15T04:27:58.614Z,62.65
2023-02-15T04:33:02.097Z,62.67
2023-02-15T04:38:05.551Z,62.58
2023-02-15T04:43:08.945Z,62.37
2023-02-15T04:48:12.580Z,62.41
2023-02-15T04:53:18.749Z,62.65
2023-02-15T04:58:22.235Z,62.64
2023-02-15T05:03:26.172Z,62.92
2023-02-15T05:08:29.565Z,62.91
2023-02-15T05:13:33.324Z,63.25
2023-02-15T05:18:36.886Z,63.12
2023-02-15T05:23:40.405Z,62.82
2023-02-15T05:28:44.538Z,63.01
2023-02-15T05:33:48.120Z,62.58
2023-02-15T05:38:51.837Z,62.75
2023-02-15T05:43:57.914Z,63.76
2023-02-15T05:49:01.888Z,63.48
2023-02-15T05:54:05.217Z,63.40
2023-02-15T05:59:09.102Z,62.83
2023-02-15T06:04:13.860Z,62.80
2023-02-15T06:09:19.491Z,62.92
2023-02-15T06:14:23.451Z,62.80
2023-02-15T06:19:26.898Z,62.58
2023-02-15T06:24:30.389Z,62.53
2023-02-15T06:29:33.693Z,62.65
2023-02-15T06:34:37.053Z,63.07
2023-02-15T06:39:40.594Z,63.01
2023-02-15T06:44:43.940Z,62.83
2023-02-15T06:49:47.401Z,63.01
2023-02-15T06:54:51.631Z,62.97
2023-02-15T06:59:55.342Z,63.07
2023-02-15T07:04:59.190Z,62.95
2023-02-15T07:10:03.289Z,62.93
2023-02-15T07:15:07.798Z,63.12
2023-02-15T07:20:14.855Z,63.17
2023-02-15T07:25:18.668Z,62.85
2023-02-15T07:30:22.095Z,62.73
2023-02-15T07:35:26.246Z,62.92
2023-02-15T07:40:29.972Z,62.94
2023-02-15T07:45:33.429Z,63.07
2023-02-15T07:50:36.750Z,62.78
2023-02-15T07:55:40.294Z,63.02
2023-02-15T08:00:59.063Z,62.81
2023-02-15T08:06:05.863Z,62.87
2023-02-15T08:11:34.877Z,62.89
2023-02-15T08:16:42.134Z,62.35
2023-02-15T08:21:51.600Z,62.34
2023-02-15T08:26:56.333Z,62.25
2023-02-15T08:32:04.636Z,63.09
2023-02-15T08:37:08.976Z,63.06
2023-02-15T08:42:14.687Z,62.45
2023-02-15T08:47:19.546Z,62.17
2023-02-15T08:52:24.387Z,62.21
2023-02-15T08:57:29.334Z,61.79
2023-02-15T09:02:33.784Z,61.67
2023-02-15T09:07:38.588Z,61.89
2023-02-15T09:12:42.979Z,61.80
2023-02-15T09:17:47.130Z,61.53
2023-02-15T09:22:58.128Z,61.76
2023-02-15T09:28:04.111Z,61.53
2023-02-15T09:33:07.530Z,61.52
2023-02-15T09:38:13.303Z,61.34
2023-02-15T09:43:35.702Z,60.81
2023-02-15T09:48:50.039Z,60.66
2023-02-15T09:54:12.374Z,60.22
2023-02-15T09:59:34.138Z,60.37
2023-02-15T10:05:05.659Z,60.56
2023-02-15T10:10:53.769Z,60.03
2023-02-15T10:16:07.126Z,60.13
2023-02-15T10:21:25.995Z,59.83
2023-02-15T10:26:42.378Z,59.43
2023-02-15T10:31:55.547Z,59.54
2023-02-15T10:37:27.348Z,59.00
2023-02-15T10:42:53.593Z,59.03
2023-02-15T10:48:15.530Z,59.01
2023-02-15T10:53:21.977Z,58.32
2023-02-15T10:58:56.981Z,57.84
2023-02-15T11:04:37.745Z,57.61
2023-02-15T11:09:49.588Z,56.77
2023-02-15T11:15:20.977Z,56.61
2023-02-15T11:20:34.348Z,56.25
2023-02-15T11:25:38.124Z,55.40
2023-02-15T11:30:47.203Z,55.39
2023-02-15T11:35:53.962Z,55.84
2023-02-15T11:41:04.012Z,55.45
2023-02-15T11:46:12.490Z,55.03
2023-02-15T11:51:19.029Z,54.13
2023-02-15T11:56:27.372Z,54.05
2023-02-15T12:01:41.405Z,54.55
2023-02-15T12:07:03.319Z,54.10
2023-02-15T12:12:28.240Z,53.42
2023-02-15T12:17:35.953Z,53.23
2023-02-15T12:22:40.389Z,53.19
2023-02-15T12:27:44.574Z,52.17
2023-02-15T12:33:06.464Z,51.69
2023-02-15T12:38:12.462Z,51.70
2023-02-15T12:43:35.660Z,51.25
2023-02-15T12:48:40.719Z,51.04
2023-02-15T12:53:45.299Z,50.97
2023-02-15T12:58:48.856Z,51.06
2023-02-15T13:04:15.313Z,50.88
2023-02-15T13:09:33.370Z,50.39
2023-02-15T13:14:37.469Z,50.45
2023-02-15T13:19:46.091Z,50.28
2023-02-15T13:25:00.490Z,50.00
2023-02-15T13:30:16.426Z,49.63
2023-02-15T13:35:20.334Z,49.71
2023-02-15T13:40:32.561Z,49.50
2023-02-15T13:46:31.188Z,49.30
2023-02-15T13:51:55.323Z,49.05
2023-02-15T13:57:20.473Z,49.40
2023-02-15T14:02:36.686Z,49.20
2023-02-15T14:07:42.602Z,49.87
2023-02-15T14:13:20.593Z,50.17
2023-02-15T14:18:36.908Z,50.63
2023-02-15T14:23:59.714Z,51.10
2023-02-15T14:29:21.796Z,52.41
2023-02-15T14:34:46.072Z,51.14
2023-02-15T14:40:22.813Z,51.68
2023-02-15T14:45:54.198Z,55.12
2023-02-15T14:50:57.665Z,52.41
2023-02-15T14:56:20.625Z,51.97
2023-02-15T15:01:28.220Z,52.49
2023-02-15T15:06:34.163Z,52.76
2023-02-15T15:11:46.599Z,53.42
2023-02-15T15:16:52.224Z,53.74
2023-02-15T15:21:57.735Z,53.90
2023-02-15T15:27:27.297Z,54.40
2023-02-15T15:32:35.065Z,54.57
2023-02-15T15:37:47.522Z,55.20
2023-02-15T15:42:51.626Z,55.71
2023-02-15T15:48:30.317Z,55.88
2023-02-15T15:53:43.464Z,56.41
2023-02-15T15:58:53.528Z,56.89
2023-02-15T16:03:59.570Z,56.98
2023-02-15T16:09:27.408Z,57.35
2023-02-15T16:14:36.518Z,57.67
2023-02-15T16:19:42.962Z,58.01
2023-02-15T16:25:01.978Z,58.14
2023-02-15T16:30:36.656Z,58.42
2023-02-15T16:43:43.598Z,59.16
2023-02-15T16:48:52.671Z,59.49
2023-02-15T16:54:02.293Z,59.58
2023-02-15T17:00:44.696Z,59.96
2023-02-15T17:05:55.012Z,60.45
2023-02-15T17:11:14.640Z,60.62
2023-02-15T18:07:45.036Z,62.20
2023-02-15T19:12:53.279Z,63.78
2023-02-15T19:17:56.733Z,63.67
2023-02-15T19:23:02.074Z,63.76
2023-02-15T19:28:37.943Z,64.25
2023-02-15T19:33:46.293Z,63.86
2023-02-15T20:52:59.263Z,64.00
2023-02-15T21:04:48.068Z,64.67
2023-02-15T21:10:02.775Z,64.38
2023-02-15T21:16:29.260Z,64.46
2023-02-15T21:22:22.072Z,65.54
2023-02-15T21:28:30.796Z,64.62
2023-02-15T21:34:22.138Z,64.71
2023-02-15T21:40:06.400Z,64.17
2023-02-15T21:45:56.465Z,64.30
2023-02-15T21:52:09.574Z,64.47
2023-02-15T21:58:10.111Z,65.76
2023-02-15T22:10:02.352Z,66.04
2023-02-15T22:16:17.778Z,66.10
2023-02-15T22:28:52.778Z,65.96
2023-02-15T22:35:25.663Z,65.69
2023-02-15T22:41:38.722Z,65.90
2023-02-15T22:46:56.770Z,65.98
2023-02-15T22:53:28.814Z,66.06
2023-02-15T22:59:14.738Z,65.76
2023-02-15T23:05:13.538Z,65.54
2023-02-15T23:10:46.770Z,65.63
2023-02-15T23:16:54.282Z,65.68
2023-02-15T23:23:13.061Z,65.79
2023-02-15T23:29:03.750Z,65.90
2023-02-15T23:35:11.741Z,66.09
2023-02-15T23:41:24.495Z,65.97
2023-02-15T23:47:17.871Z,65.92
2023-02-15T23:53:39.898Z,65.94
2023-02-15T23:59:23.350Z,65.56
